Time;durP1;ratioP1;P1;durP2;ratioP2;P2;SDS_P1;SDS_P2;PMS_P1;PMS_P2;Temp;Humidity;BMP_temperature;BMP_pressure;BME280_temperature;BME280_humidity;BME280_pressure;Samples;Min_cycle;Max_cycle;Signal;HPM_P1;HPM_P2
2022/05/23 00:01:53;;;;;;;0.10;0.10;;;13.80;99.90;;;;;;4890183;29;20127;-76
2022/05/23 00:04:19;;;;;;;0.00;0.00;;;13.70;99.90;;;;;;4906630;29;20054;-77
2022/05/23 00:06:45;;;;;;;0.00;0.00;;;13.70;99.90;;;;;;4907872;29;20488;-76
2022/05/23 00:09:12;;;;;;;0.00;0.00;;;13.70;99.90;;;;;;4906471;29;20423;-76
2022/05/23 00:11:38;;;;;;;0.00;0.00;;;13.70;99.90;;;;;;4905003;29;20051;-76
2022/05/23 00:14:04;;;;;;;0.00;0.00;;;13.40;99.90;;;;;;4906360;29;20077;-76
2022/05/23 00:16:34;;;;;;;0.00;0.00;;;13.60;99.90;;;;;;4907038;29;20063;-76
2022/05/23 00:19:00;;;;;;;0.00;0.00;;;13.60;99.90;;;;;;4907086;29;20459;-76
2022/05/23 00:21:26;;;;;;;0.00;0.00;;;13.50;99.90;;;;;;4889225;29;20052;-76
2022/05/23 00:23:51;;;;;;;0.00;0.00;;;13.50;99.90;;;;;;4907226;29;20040;-76
2022/05/23 00:26:20;;;;;;;0.00;0.00;;;13.50;99.90;;;;;;4906602;29;20095;-76
2022/05/23 00:28:46;;;;;;;0.00;0.00;;;13.50;99.90;;;;;;4905679;29;20463;-75
2022/05/23 00:31:12;;;;;;;0.00;0.00;;;13.50;99.90;;;;;;4906885;29;20059;-77
2022/05/23 00:36:30;;;;;;;;;;;13.50;99.90;;;;;;4906322;29;20106;-77
2022/05/23 00:38:56;;;;;;;0.00;0.00;;;13.50;99.90;;;;;;4906755;29;19931;-76
2022/05/23 00:44:22;;;;;;;0.00;0.00;;;13.40;99.90;;;;;;4889664;29;20672;-76
2022/05/23 00:46:53;;;;;;;0.00;0.00;;;13.40;99.90;;;;;;4916369;29;20095;-77
2022/05/23 00:49:22;;;;;;;0.00;0.00;;;13.40;99.90;;;;;;4889253;29;20083;-76
2022/05/23 00:51:48;;;;;;;0.00;0.00;;;13.40;99.90;;;;;;4906639;29;20050;-77
2022/05/23 00:54:15;;;;;;;0.00;0.00;;;13.30;99.90;;;;;;4889984;29;20484;-77
2022/05/23 00:56:46;;;;;;;0.00;0.00;;;13.30;99.90;;;;;;4888596;29;20052;-77
2022/05/23 00:59:18;;;;;;;0.00;0.00;;;13.20;99.90;;;;;;4889748;29;20066;-77
2022/05/23 01:01:44;;;;;;;0.00;0.00;;;13.30;99.90;;;;;;4906055;29;20044;-77
2022/05/23 01:04:10;;;;;;;0.00;0.00;;;13.20;99.90;;;;;;4889615;29;20291;-77
2022/05/23 01:06:36;;;;;;;0.00;0.00;;;13.10;99.90;;;;;;4894446;23;20152;-76
2022/05/23 01:09:03;;;;;;;0.00;0.00;;;13.10;99.90;;;;;;4891575;29;20083;-76
2022/05/23 01:11:28;;;;;;;0.00;0.00;;;13.00;99.90;;;;;;4888118;29;20114;-76
2022/05/23 01:13:55;;;;;;;0.00;0.00;;;13.00;99.90;;;;;;4905453;29;20471;-76
2022/05/23 01:16:23;;;;;;;0.00;0.00;;;13.00;99.90;;;;;;4905953;29;20040;-76
2022/05/23 01:18:49;;;;;;;0.00;0.00;;;13.10;99.90;;;;;;4905348;29;20052;-77
2022/05/23 01:21:46;;;;;;;0.00;0.00;;;13.00;99.90;;;;;;4889687;29;20123;-77
2022/05/23 01:24:40;;;;;;;0.00;0.00;;;13.00;99.90;;;;;;4900044;29;20079;-77
2022/05/23 01:27:06;;;;;;;0.00;0.00;;;12.90;99.90;;;;;;4905431;29;20630;-77
2022/05/23 01:29:32;;;;;;;0.00;0.00;;;12.90;99.90;;;;;;4905191;29;20052;-77
2022/05/23 01:31:59;;;;;;;0.00;0.00;;;12.80;99.90;;;;;;4905823;29;20179;-77
2022/05/23 01:34:26;;;;;;;0.00;0.00;;;12.90;99.90;;;;;;4873599;29;20485;-77
2022/05/23 01:36:53;;;;;;;0.00;0.00;;;12.80;99.90;;;;;;4888232;29;20055;-77
2022/05/23 01:39:18;;;;;;;0.00;0.00;;;12.80;99.90;;;;;;4905593;29;20608;-77
2022/05/23 01:41:44;;;;;;;0.00;0.00;;;12.80;99.90;;;;;;4887738;29;20127;-77
2022/05/23 01:44:10;;;;;;;0.00;0.00;;;12.80;99.90;;;;;;4906103;29;20092;-77
2022/05/23 01:46:36;;;;;;;0.00;0.00;;;12.60;99.90;;;;;;4896545;29;20778;-77
2022/05/23 01:49:02;;;;;;;0.00;0.00;;;12.70;99.90;;;;;;4887000;29;20043;-77
2022/05/23 01:51:28;;;;;;;0.00;0.00;;;12.70;99.90;;;;;;4869791;29;20650;-77
2022/05/23 01:53:54;;;;;;;0.00;0.00;;;12.70;99.90;;;;;;4886668;29;20435;-77
2022/05/23 01:56:19;;;;;;;0.00;0.00;;;12.80;99.90;;;;;;4885848;29;20049;-76
2022/05/23 02:01:29;;;;;;;0.00;0.00;;;12.60;99.90;;;;;;4886128;29;20048;-76
2022/05/23 02:03:55;;;;;;;0.00;0.00;;;12.70;99.90;;;;;;4886808;29;20041;-76
2022/05/23 02:06:20;;;;;;;0.00;0.00;;;12.60;99.90;;;;;;4886288;29;20281;-77
2022/05/23 02:08:47;;;;;;;0.00;0.00;;;12.60;99.90;;;;;;4886524;29;20063;-76
2022/05/23 02:11:13;;;;;;;0.00;0.00;;;12.60;99.90;;;;;;4886358;29;20057;-76
2022/05/23 02:13:43;;;;;;;0.00;0.00;;;12.60;99.90;;;;;;4886184;29;20068;-77
2022/05/23 02:16:09;;;;;;;0.00;0.00;;;12.60;99.90;;;;;;4886609;29;20045;-78
2022/05/23 02:18:35;;;;;;;0.00;0.00;;;12.60;99.90;;;;;;4885629;29;20063;-77
2022/05/23 02:21:01;;;;;;;0.00;0.00;;;12.50;99.90;;;;;;4885187;29;20469;-77
2022/05/23 02:23:26;;;;;;;0.00;0.00;;;12.50;99.90;;;;;;4886336;29;20306;-77
2022/05/23 02:25:52;;;;;;;0.00;0.00;;;12.50;99.90;;;;;;4885846;29;20495;-77
2022/05/23 02:28:19;;;;;;;0.00;0.00;;;12.50;99.90;;;;;;4885712;29;20159;-76
2022/05/23 02:30:46;;;;;;;0.00;0.00;;;12.50;99.90;;;;;;4886648;29;20049;-77
2022/05/23 02:33:12;;;;;;;0.00;0.00;;;12.50;99.90;;;;;;4886642;29;20279;-77
2022/05/23 02:35:38;;;;;;;0.00;0.00;;;12.50;99.90;;;;;;4885784;29;20143;-77
2022/05/23 02:38:04;;;;;;;0.00;0.00;;;12.50;99.90;;;;;;4886504;29;20103;-77
2022/05/23 02:40:30;;;;;;;0.00;0.00;;;12.50;99.90;;;;;;4885985;29;20055;-77
2022/05/23 02:42:55;;;;;;;0.00;0.00;;;12.50;99.90;;;;;;4884751;29;20048;-77
2022/05/23 02:45:21;;;;;;;0.00;0.00;;;12.50;99.90;;;;;;4888842;29;20045;-72
2022/05/23 02:47:47;;;;;;;0.00;0.00;;;12.50;99.90;;;;;;4894043;29;20072;-76
2022/05/23 02:50:13;;;;;;;0.00;0.00;;;12.50;99.90;;;;;;4885314;29;20135;-78
2022/05/23 02:52:41;;;;;;;0.00;0.00;;;12.50;99.90;;;;;;4885910;29;20071;-77
2022/05/23 02:55:07;;;;;;;0.00;0.00;;;12.50;99.90;;;;;;4890168;29;20452;-77
2022/05/23 02:57:33;;;;;;;0.00;0.00;;;12.50;99.90;;;;;;4888806;29;20053;-77
2022/05/23 02:59:58;;;;;;;0.00;0.00;;;12.50;99.90;;;;;;4890164;29;20168;-77
2022/05/23 03:05:09;;;;;;;0.00;0.00;;;12.60;99.90;;;;;;4893699;29;20108;-77
2022/05/23 03:07:34;;;;;;;0.00;0.00;;;12.50;99.90;;;;;;4888893;29;20482;-77
2022/05/23 03:10:00;;;;;;;0.00;0.00;;;12.50;99.90;;;;;;4889939;29;20079;-77
2022/05/23 03:12:27;;;;;;;0.00;0.00;;;12.60;99.90;;;;;;4887365;29;20100;-77
2022/05/23 03:14:53;;;;;;;0.00;0.00;;;12.60;99.90;;;;;;4889104;29;20057;-77
2022/05/23 03:17:19;;;;;;;0.00;0.00;;;12.60;99.90;;;;;;4889498;29;20081;-77
2022/05/23 03:19:45;;;;;;;0.00;0.00;;;12.50;99.90;;;;;;4889998;29;20044;-77
2022/05/23 03:27:42;;;;;;;0.00;0.00;;;12.50;99.90;;;;;;4871386;29;20060;-78
2022/05/23 03:30:09;;;;;;;0.00;0.00;;;12.40;99.90;;;;;;4889406;29;20052;-78
2022/05/23 03:32:35;;;;;;;0.00;0.00;;;12.50;99.90;;;;;;4872341;29;20049;-76
2022/05/23 03:35:01;;;;;;;0.00;0.00;;;12.50;99.90;;;;;;4888049;29;20055;-76
2022/05/23 03:37:27;;;;;;;0.00;0.00;;;12.50;99.90;;;;;;4888347;29;20080;-75
2022/05/23 03:39:52;;;;;;;0.00;0.00;;;12.60;99.90;;;;;;4889302;29;20502;-76
2022/05/23 03:42:18;;;;;;;0.00;0.00;;;12.70;99.90;;;;;;4887175;29;20213;-76
2022/05/23 03:44:44;;;;;;;0.00;0.00;;;12.70;99.90;;;;;;4891228;29;20051;-76
2022/05/23 03:47:10;;;;;;;0.00;0.00;;;12.80;99.90;;;;;;4897254;29;20044;-76
2022/05/23 03:49:36;;;;;;;0.00;0.00;;;12.70;99.90;;;;;;4888713;29;20108;-75
2022/05/23 03:52:02;;;;;;;0.00;0.00;;;12.80;99.90;;;;;;4888853;29;20453;-76
2022/05/23 03:54:28;;;;;;;0.00;0.00;;;12.80;99.90;;;;;;4888006;29;20399;-76
2022/05/23 03:56:59;;;;;;;0.00;0.00;;;12.80;99.90;;;;;;4888194;29;20041;-76
2022/05/23 03:59:25;;;;;;;0.00;0.00;;;12.80;99.90;;;;;;4888664;29;20051;-76
2022/05/23 04:01:57;;;;;;;0.00;0.00;;;12.80;99.90;;;;;;4887806;29;20783;-75
2022/05/23 04:04:24;;;;;;;0.00;0.00;;;12.80;99.90;;;;;;4887920;29;20063;-76
2022/05/23 04:06:50;;;;;;;0.00;0.00;;;12.90;99.90;;;;;;4871466;29;20071;-76
2022/05/23 04:09:16;;;;;;;0.00;0.00;;;12.90;99.90;;;;;;4887791;29;20053;-72
2022/05/23 04:11:42;;;;;;;0.00;0.00;;;12.90;99.90;;;;;;4888316;29;20411;-75
2022/05/23 04:14:08;;;;;;;0.00;0.00;;;12.90;99.90;;;;;;4888453;29;20041;-75
2022/05/23 04:16:34;;;;;;;0.00;0.00;;;13.00;99.90;;;;;;4888201;29;20056;-76
2022/05/23 04:19:05;;;;;;;0.00;0.00;;;13.00;99.90;;;;;;4888143;29;20044;-76
2022/05/23 04:21:31;;;;;;;0.00;0.00;;;13.00;99.90;;;;;;4888091;29;20061;-75
2022/05/23 04:23:56;;;;;;;0.00;0.00;;;13.10;99.90;;;;;;4887048;29;20041;-76
2022/05/23 04:26:22;;;;;;;0.00;0.00;;;13.00;99.90;;;;;;4885741;29;20614;-76
2022/05/23 04:28:47;;;;;;;0.00;0.00;;;13.10;99.90;;;;;;4888152;29;20096;-75
2022/05/23 04:31:13;;;;;;;0.00;0.00;;;13.10;99.90;;;;;;4887399;29;20044;-76
2022/05/23 04:36:23;;;;;;;0.00;0.00;;;13.10;99.90;;;;;;4887481;29;20195;-76
2022/05/23 04:38:49;;;;;;;0.00;0.00;;;13.20;99.90;;;;;;4888029;29;20084;-76
2022/05/23 04:41:15;;;;;;;0.00;0.00;;;13.20;99.90;;;;;;4887064;29;20041;-76
2022/05/23 04:43:41;;;;;;;0.00;0.00;;;13.30;99.90;;;;;;4888456;29;20696;-76
2022/05/23 04:46:06;;;;;;;0.00;0.00;;;13.40;99.90;;;;;;4896737;29;20174;-76
2022/05/23 04:51:16;;;;;;;0.00;0.00;;;13.60;99.90;;;;;;4870500;29;20143;-76
2022/05/23 04:53:42;;;;;;;0.00;0.00;;;13.70;99.90;;;;;;4888109;29;20523;-77
2022/05/23 04:56:08;;;;;;;0.00;0.00;;;14.00;99.90;;;;;;4886391;29;20045;-77
2022/05/23 04:58:34;;;;;;;0.00;0.00;;;14.50;99.90;;;;;;4886252;29;20048;-75
2022/05/23 05:01:00;;;;;;;0.00;0.00;;;14.90;99.90;;;;;;4887694;29;20188;-74
2022/05/23 05:03:25;;;;;;;0.00;0.00;;;15.10;99.90;;;;;;4887448;29;20049;-75
2022/05/23 05:05:52;;;;;;;0.00;0.00;;;15.30;99.90;;;;;;4886668;29;20049;-75
2022/05/23 05:08:17;;;;;;;0.00;0.00;;;15.50;99.90;;;;;;4887473;29;20472;-77
2022/05/23 05:10:44;;;;;;;0.00;0.00;;;15.60;99.90;;;;;;4887652;29;20056;-75
2022/05/23 05:13:10;;;;;;;0.00;0.00;;;15.60;99.90;;;;;;4873859;29;20105;-76
2022/05/23 05:15:36;;;;;;;0.00;0.00;;;15.60;99.90;;;;;;4892559;29;20049;-75
2022/05/23 05:18:02;;;;;;;0.10;0.08;;;15.70;99.90;;;;;;4870604;29;20083;-75
2022/05/23 05:20:29;;;;;;;0.00;0.00;;;16.00;99.90;;;;;;4887399;29;20048;-76
2022/05/23 05:22:55;;;;;;;0.00;0.00;;;16.30;99.90;;;;;;4886706;29;20116;-75
2022/05/23 05:25:21;;;;;;;0.00;0.00;;;16.20;99.90;;;;;;4869988;29;20052;-75
2022/05/23 05:27:47;;;;;;;0.00;0.00;;;16.10;99.90;;;;;;4869970;29;20451;-75
2022/05/23 05:30:19;;;;;;;0.00;0.00;;;16.40;99.90;;;;;;4887092;29;20108;-76
2022/05/23 05:33:00;;;;;;;0.00;0.00;;;16.60;99.90;;;;;;4887336;29;20076;-75
2022/05/23 05:35:37;;;;;;;0.00;0.00;;;16.80;99.90;;;;;;4869737;29;20104;-75
2022/05/23 05:38:14;;;;;;;0.00;0.00;;;16.60;99.90;;;;;;4886896;29;20044;-75
2022/05/23 05:40:44;;;;;;;0.00;0.00;;;16.20;99.90;;;;;;4886082;29;20052;-69
2022/05/23 05:43:16;;;;;;;0.00;0.00;;;16.00;99.90;;;;;;4886780;29;20080;-75
2022/05/23 05:45:49;;;;;;;0.00;0.00;;;15.80;99.90;;;;;;4879703;29;20056;-73
2022/05/23 05:48:15;;;;;;;0.03;0.03;;;15.60;99.90;;;;;;4884632;29;20051;-76
2022/05/23 05:50:43;;;;;;;0.00;0.00;;;15.30;99.90;;;;;;4873487;29;20439;-75
2022/05/23 05:53:13;;;;;;;0.00;0.00;;;15.10;99.90;;;;;;4905509;29;20040;-74
2022/05/23 05:55:41;;;;;;;0.00;0.00;;;15.10;99.90;;;;;;4904368;29;20380;-75
2022/05/23 05:58:08;;;;;;;0.00;0.00;;;15.10;99.90;;;;;;4888652;29;20056;-75
2022/05/23 06:00:33;;;;;;;0.00;0.00;;;15.00;99.90;;;;;;4888255;29;20052;-75
2022/05/23 06:02:59;;;;;;;0.00;0.00;;;15.20;99.90;;;;;;4905647;29;20281;-73
2022/05/23 06:05:24;;;;;;;0.00;0.00;;;15.30;99.90;;;;;;4904408;29;20119;-73
2022/05/23 06:13:19;;;;;;;0.00;0.00;;;15.60;99.90;;;;;;4905050;29;20059;-73
2022/05/23 06:15:45;;;;;;;0.15;0.10;;;15.60;99.90;;;;;;4888114;29;20052;-76
2022/05/23 06:18:11;;;;;;;0.00;0.00;;;15.70;99.90;;;;;;4904786;29;20051;-74
2022/05/23 06:20:37;;;;;;;0.00;0.00;;;15.80;99.90;;;;;;4887960;29;20040;-76
2022/05/23 06:23:04;;;;;;;0.00;0.00;;;15.70;99.90;;;;;;4905163;29;20969;-75
2022/05/23 06:25:30;;;;;;;0.00;0.00;;;15.60;99.90;;;;;;4904074;29;20052;-76
2022/05/23 06:27:57;;;;;;;0.10;0.10;;;15.50;99.90;;;;;;4888302;29;20040;-76
2022/05/23 06:30:23;;;;;;;0.00;0.00;;;15.30;99.90;;;;;;4891607;29;20055;-75
2022/05/23 06:32:50;;;;;;;0.00;0.00;;;15.40;99.90;;;;;;4908582;29;20056;-73
2022/05/23 06:35:16;;;;;;;0.22;0.20;;;15.70;99.90;;;;;;4908290;29;20048;-76
2022/05/23 06:37:43;;;;;;;0.05;0.05;;;15.90;99.90;;;;;;4891941;29;20131;-73
2022/05/23 06:40:12;;;;;;;0.00;0.00;;;16.40;99.90;;;;;;4892122;29;20131;-75
2022/05/23 06:42:38;;;;;;;0.00;0.00;;;16.80;99.90;;;;;;4890324;29;20048;-74
2022/05/23 06:45:06;;;;;;;0.00;0.00;;;17.30;99.90;;;;;;4904136;29;20082;-72
2022/05/23 06:47:32;;;;;;;0.05;0.05;;;17.00;99.90;;;;;;4897895;29;20495;-74
2022/05/23 06:49:58;;;;;;;0.15;0.08;;;17.20;99.90;;;;;;4889884;29;20041;-74
2022/05/23 06:52:23;;;;;;;0.00;0.00;;;17.40;99.90;;;;;;4889668;29;20053;-72
2022/05/23 06:54:49;;;;;;;0.00;0.00;;;17.50;99.90;;;;;;4890218;29;20055;-73
2022/05/23 06:57:15;;;;;;;0.15;0.08;;;17.50;99.90;;;;;;4889692;29;20052;-72
2022/05/23 06:59:41;;;;;;;0.10;0.10;;;17.40;99.90;;;;;;4872968;29;20053;-73
2022/05/23 07:02:09;;;;;;;0.00;0.00;;;17.40;99.90;;;;;;4890033;29;20105;-72
2022/05/23 07:13:05;;;;;;;0.00;0.00;;;17.90;99.90;;;;;;4816018;29;20131;-76
2022/05/23 07:15:36;;;;;;;0.00;0.00;;;17.70;99.90;;;;;;4876940;29;20052;-76
2022/05/23 07:18:03;;;;;;;0.00;0.00;;;17.60;99.90;;;;;;4872939;29;20393;-76
2022/05/23 07:20:29;;;;;;;0.00;0.00;;;17.90;99.90;;;;;;4889860;29;20129;-76
2022/05/23 07:22:55;;;;;;;0.00;0.00;;;18.20;99.90;;;;;;4873619;29;20061;-77
2022/05/23 07:25:21;;;;;;;0.00;0.00;;;18.50;99.90;;;;;;4895728;29;20049;-75
2022/05/23 07:27:47;;;;;;;0.00;0.00;;;18.70;99.90;;;;;;4893413;29;20091;-76
2022/05/23 07:30:12;;;;;;;0.00;0.00;;;18.70;99.90;;;;;;4890187;29;20056;-75
2022/05/23 07:32:38;;;;;;;0.00;0.00;;;18.80;99.90;;;;;;4887494;29;20352;-76
2022/05/23 07:35:04;;;;;;;0.00;0.00;;;19.10;99.90;;;;;;4872544;29;20412;-71
2022/05/23 07:37:31;;;;;;;0.00;0.00;;;19.30;99.90;;;;;;4889142;29;20192;-71
2022/05/23 07:39:57;;;;;;;0.00;0.00;;;19.20;99.90;;;;;;4886725;29;20044;-73
2022/05/23 07:42:23;;;;;;;0.00;0.00;;;19.20;99.90;;;;;;4855413;29;20048;-73
2022/05/23 07:44:49;;;;;;;0.00;0.00;;;19.00;99.90;;;;;;4891599;29;20056;-70
2022/05/23 07:47:14;;;;;;;0.10;0.10;;;18.60;99.90;;;;;;4897793;29;20180;-72
2022/05/23 07:49:40;;;;;;;0.00;0.00;;;18.70;99.90;;;;;;4886099;29;20063;-73
2022/05/23 07:52:06;;;;;;;0.00;0.00;;;18.90;99.90;;;;;;4892173;29;20047;-74
2022/05/23 08:02:45;;;;;;;0.00;0.00;;;19.00;99.90;;;;;;4926521;29;20085;-72
2022/05/23 08:05:11;;;;;;;0.00;0.00;;;19.20;99.90;;;;;;4926522;29;20660;-73
2022/05/23 08:07:37;;;;;;;0.00;0.00;;;19.20;99.90;;;;;;4893389;29;20462;-73
2022/05/23 08:10:04;;;;;;;0.00;0.00;;;19.20;99.90;;;;;;4925539;29;20072;-73
2022/05/23 08:12:31;;;;;;;0.13;0.10;;;19.40;99.90;;;;;;4907949;29;20036;-74
2022/05/23 08:14:57;;;;;;;0.03;0.03;;;19.40;99.90;;;;;;4926178;29;20039;-73
2022/05/23 08:17:23;;;;;;;0.10;0.10;;;19.70;99.90;;;;;;4925521;29;20051;-74
2022/05/23 08:19:49;;;;;;;0.63;0.43;;;20.00;99.90;;;;;;4926303;29;20040;-73
2022/05/23 08:22:15;;;;;;;0.00;0.00;;;20.20;99.90;;;;;;4926911;29;20586;-73
2022/05/23 08:24:42;;;;;;;0.00;0.00;;;20.50;99.90;;;;;;4926544;29;20055;-68
2022/05/23 08:27:08;;;;;;;0.00;0.00;;;20.70;99.90;;;;;;4924685;29;20040;-68
2022/05/23 08:29:36;;;;;;;0.10;0.00;;;21.30;99.90;;;;;;4925608;29;20048;-73
2022/05/23 08:32:06;;;;;;;0.00;0.00;;;21.40;99.90;;;;;;4925920;29;20102;-70
2022/05/23 08:34:32;;;;;;;0.00;0.00;;;21.70;99.90;;;;;;4925090;29;20058;-70
2022/05/23 08:36:58;;;;;;;0.00;0.00;;;21.60;99.90;;;;;;4925560;29;20047;-70
2022/05/23 08:39:25;;;;;;;0.00;0.00;;;21.50;99.90;;;;;;4925847;29;20039;-68
2022/05/23 08:41:52;;;;;;;0.00;0.00;;;21.30;99.90;;;;;;4924558;29;20048;-70
2022/05/23 08:44:44;;;;;;;0.28;0.20;;;21.30;99.90;;;;;;4923796;29;20036;-69
2022/05/23 08:47:39;;;;;;;0.08;0.00;;;21.30;99.90;;;;;;4879198;29;20068;-74
2022/05/23 08:50:11;;;;;;;;;;;21.50;99.90;;;;;;4868480;29;20064;-70
2022/05/23 08:52:52;;;;;;;0.00;0.00;;;21.50;99.90;;;;;;4886647;29;19959;-75
2022/05/23 08:55:28;;;;;;;0.00;0.00;;;21.30;99.90;;;;;;4887010;29;20119;-73
2022/05/23 08:58:20;;;;;;;0.03;0.00;;;21.60;99.90;;;;;;4887135;29;20127;-73
2022/05/23 09:00:58;;;;;;;0.00;0.00;;;21.70;99.90;;;;;;4870795;29;20095;-73
2022/05/23 09:03:31;;;;;;;0.00;0.00;;;21.80;99.90;;;;;;4885664;29;20135;-73
2022/05/23 09:06:15;;;;;;;0.00;0.00;;;22.00;99.90;;;;;;4887579;29;20040;-76
2022/05/23 09:08:49;;;;;;;0.00;0.00;;;22.20;99.90;;;;;;4886488;29;20521;-75
2022/05/23 09:11:35;;;;;;;0.00;0.00;;;22.70;99.90;;;;;;4885993;29;20052;-74
2022/05/23 09:14:03;;;;;;;0.00;0.00;;;22.90;99.90;;;;;;4894218;29;20058;-74
2022/05/23 09:16:40;;;;;;;0.10;0.10;;;22.80;99.90;;;;;;4908023;29;20459;-73
2022/05/23 09:19:27;;;;;;;0.00;0.00;;;23.20;99.90;;;;;;4925056;29;20152;-73
2022/05/23 09:22:12;;;;;;;0.10;0.10;;;23.40;99.90;;;;;;4925320;29;20094;-73
2022/05/23 09:24:57;;;;;;;0.20;0.10;;;23.30;99.90;;;;;;4924546;29;20036;-73
2022/05/23 09:27:36;;;;;;;0.00;0.00;;;23.00;99.90;;;;;;4906885;29;20092;-69
2022/05/23 09:30:09;;;;;;;0.00;0.00;;;23.30;99.90;;;;;;4907128;29;20459;-69
2022/05/23 09:32:36;;;;;;;0.00;0.00;;;23.30;99.90;;;;;;4924629;29;20677;-69
2022/05/23 09:35:19;;;;;;;0.00;0.00;;;23.50;99.90;;;;;;4925111;29;20061;-80
2022/05/23 09:37:48;;;;;;;0.38;0.25;;;23.30;99.90;;;;;;4911017;29;20216;-71
2022/05/23 09:40:28;;;;;;;0.20;0.20;;;23.50;99.90;;;;;;4924996;29;20051;-71
2022/05/23 09:49:20;;;;;;;0.10;0.10;;;24.20;99.90;;;;;;4885589;29;20063;-74
2022/05/23 09:51:57;;;;;;;0.00;0.00;;;24.10;99.90;;;;;;4870401;29;20056;-75
2022/05/23 09:54:43;;;;;;;0.03;0.03;;;24.10;99.90;;;;;;4869354;29;20059;-71
2022/05/23 09:57:22;;;;;;;0.10;0.00;;;23.70;99.90;;;;;;4885557;29;20088;-70
2022/05/23 10:00:03;;;;;;;0.20;0.10;;;24.20;99.90;;;;;;4886090;29;20135;-69
2022/05/23 10:02:31;;;;;;;0.00;0.00;;;24.00;99.90;;;;;;4885864;29;20557;-69
2022/05/23 10:04:57;;;;;;;0.00;0.00;;;24.20;99.90;;;;;;4885877;29;20049;-67
2022/05/23 10:07:36;;;;;;;0.00;0.00;;;24.40;99.90;;;;;;4885790;29;20198;-69
2022/05/23 10:10:24;;;;;;;0.00;0.00;;;24.80;99.90;;;;;;4868811;29;20056;-69
2022/05/23 10:12:50;;;;;;;0.10;0.10;;;24.70;99.90;;;;;;4886387;29;20445;-69
2022/05/23 10:15:30;;;;;;;0.00;0.00;;;24.80;99.90;;;;;;4886182;29;20055;-70
2022/05/23 10:18:06;;;;;;;0.00;0.00;;;24.90;99.90;;;;;;4885654;29;20095;-69
2022/05/23 10:20:38;;;;;;;0.20;0.20;;;25.00;99.90;;;;;;4886052;29;20051;-69
2022/05/23 10:23:05;;;;;;;0.00;0.00;;;25.00;99.90;;;;;;4869062;29;20091;-69
2022/05/23 10:26:26;;;;;;;0.13;0.03;;;25.20;99.90;;;;;;4885768;29;20056;-71
2022/05/23 10:28:54;;;;;;;0.60;0.20;;;25.10;99.90;;;;;;4849289;29;20049;-70
2022/05/23 10:31:28;;;;;;;0.00;0.00;;;25.00;99.90;;;;;;4881849;29;20115;-69
2022/05/23 10:33:58;;;;;;;;;;;25.50;99.90;;;;;;4886228;29;20270;-69
2022/05/23 10:36:26;;;;;;;0.00;0.00;;;25.60;99.90;;;;;;4869123;29;19923;-69
2022/05/23 10:42:10;;;;;;;0.03;0.03;;;25.80;99.90;;;;;;4922603;29;20058;-68
2022/05/23 10:44:47;;;;;;;0.00;0.00;;;25.70;99.90;;;;;;4916969;29;20135;-67
2022/05/23 10:47:27;;;;;;;0.00;0.00;;;25.80;99.90;;;;;;4877456;29;20139;-68
2022/05/23 10:50:06;;;;;;;0.20;0.20;;;25.80;99.90;;;;;;4910609;29;20677;-67
2022/05/23 10:52:50;;;;;;;0.00;0.00;;;25.70;99.90;;;;;;4923646;29;20281;-68
2022/05/23 10:55:40;;;;;;;0.10;0.10;;;25.60;99.90;;;;;;4905664;29;20056;-67
2022/05/23 10:58:28;;;;;;;0.00;0.00;;;25.10;99.90;;;;;;4914343;29;20063;-67
2022/05/23 11:01:36;;;;;;;0.00;0.00;;;25.20;99.90;;;;;;4869049;29;20049;-70
2022/05/23 11:04:25;;;;;;;0.00;0.00;;;25.10;99.90;;;;;;4868881;29;20072;-70
2022/05/23 11:07:28;;;;;;;0.17;0.17;;;25.40;99.90;;;;;;4885219;29;20070;-69
2022/05/23 11:10:23;;;;;;;0.15;0.15;;;25.10;99.90;;;;;;4884392;29;20194;-68
2022/05/23 11:12:58;;;;;;;;;;;24.70;99.90;;;;;;4869410;29;20056;-69
2022/05/23 11:15:54;;;;;;;0.00;0.00;;;24.90;99.90;;;;;;4887671;29;19923;-63
2022/05/23 11:18:38;;;;;;;0.00;0.00;;;25.00;99.90;;;;;;4899815;29;20039;-67
2022/05/23 11:21:07;;;;;;;0.00;0.00;;;25.40;99.90;;;;;;4909492;29;20048;-67
2022/05/23 11:23:47;;;;;;;0.13;0.10;;;25.40;99.90;;;;;;4909240;29;20143;-68
2022/05/23 11:26:36;;;;;;;0.30;0.10;;;25.30;99.90;;;;;;4909348;29;20498;-67
2022/05/23 11:35:06;;;;;;;0.00;0.00;;;25.60;99.90;;;;;;4909522;29;20073;-68
2022/05/23 11:37:45;;;;;;;0.00;0.00;;;26.00;99.90;;;;;;4909118;29;20126;-67
2022/05/23 11:40:33;;;;;;;0.43;0.20;;;25.60;99.90;;;;;;4908936;29;20142;-67
2022/05/23 11:43:02;;;;;;;0.45;0.20;;;25.60;99.90;;;;;;4879440;29;20150;-67
2022/05/23 11:46:02;;;;;;;0.10;0.10;;;26.10;99.90;;;;;;4892980;29;20570;-67
2022/05/23 11:48:36;;;;;;;0.00;0.00;;;26.20;99.90;;;;;;4889916;29;20040;-68
2022/05/23 11:51:17;;;;;;;0.10;0.10;;;26.10;99.90;;;;;;4888833;29;20107;-67
2022/05/23 11:53:58;;;;;;;0.00;0.00;;;26.20;99.90;;;;;;4888004;29;20063;-68
2022/05/23 11:56:57;;;;;;;0.10;0.10;;;26.00;99.90;;;;;;4870002;29;20045;-68
2022/05/23 11:59:23;;;;;;;0.15;0.15;;;26.20;99.90;;;;;;4888112;29;20054;-67
2022/05/23 12:02:07;;;;;;;0.65;0.30;;;26.60;99.90;;;;;;4888051;29;20040;-67
2022/05/23 12:04:48;;;;;;;0.10;0.10;;;26.10;99.90;;;;;;4903828;29;20047;-67
2022/05/23 12:07:42;;;;;;;0.10;0.00;;;25.50;99.90;;;;;;4925886;29;20119;-66
2022/05/23 12:10:24;;;;;;;0.00;0.00;;;25.70;99.90;;;;;;4905342;29;20120;-67
2022/05/23 12:12:58;;;;;;;0.08;0.08;;;25.50;99.90;;;;;;4925433;29;20114;-67
2022/05/23 12:15:42;;;;;;;0.00;0.00;;;25.70;99.90;;;;;;4906590;29;20158;-67
2022/05/23 12:18:19;;;;;;;0.00;0.00;;;25.70;99.90;;;;;;4906193;29;20407;-67
2022/05/23 12:20:47;;;;;;;0.00;0.00;;;26.20;99.90;;;;;;4918471;29;20058;-67
2022/05/23 12:23:17;;;;;;;0.30;0.20;;;26.30;99.90;;;;;;4891136;29;20054;-67
2022/05/23 12:26:03;;;;;;;0.10;0.10;;;25.80;99.90;;;;;;4913176;29;20083;-65
2022/05/23 12:28:29;;;;;;;0.30;0.28;;;25.70;99.90;;;;;;4925112;29;20043;-66
2022/05/23 12:31:13;;;;;;;0.10;0.10;;;26.10;99.90;;;;;;4924957;29;20054;-66
2022/05/23 12:33:51;;;;;;;0.28;0.10;;;25.90;99.90;;;;;;4908193;29;20740;-67
2022/05/23 12:36:21;;;;;;;0.00;0.00;;;25.70;99.90;;;;;;4880375;29;20115;-67
2022/05/23 12:38:59;;;;;;;0.15;0.10;;;25.60;99.90;;;;;;4887715;29;20049;-67
2022/05/23 12:42:00;;;;;;;0.20;0.20;;;25.70;99.90;;;;;;4869962;29;20044;-67
2022/05/23 12:44:49;;;;;;;0.10;0.10;;;26.10;99.90;;;;;;4884740;29;20458;-66
2022/05/23 12:47:24;;;;;;;0.20;0.20;;;26.50;99.90;;;;;;4886163;29;20048;-69
2022/05/23 12:50:22;;;;;;;0.38;0.28;;;26.40;99.90;;;;;;4906007;29;20123;-66
2022/05/23 12:53:21;;;;;;;0.10;0.10;;;26.70;99.90;;;;;;4889284;29;20056;-68
2022/05/23 12:56:11;;;;;;;0.20;0.10;;;26.40;99.90;;;;;;4905378;29;20041;-68
2022/05/23 12:59:08;;;;;;;0.10;0.10;;;25.90;99.90;;;;;;4905511;29;20136;-67
2022/05/23 13:01:37;;;;;;;0.22;0.22;;;25.90;99.90;;;;;;4888841;29;20052;-67
2022/05/23 13:04:25;;;;;;;0.10;0.10;;;25.90;99.90;;;;;;4888603;29;20147;-68
2022/05/23 13:07:06;;;;;;;2.35;0.38;;;26.00;99.90;;;;;;4901331;29;20060;-68
2022/05/23 13:09:38;;;;;;;0.20;0.15;;;25.80;99.90;;;;;;4876331;29;20044;-67
2022/05/23 13:12:11;;;;;;;0.00;0.00;;;25.20;99.90;;;;;;4893386;29;20059;-67
2022/05/23 13:14:53;;;;;;;0.10;0.10;;;25.20;99.90;;;;;;4860616;29;20071;-68
2022/05/23 13:17:31;;;;;;;0.13;0.10;;;24.80;99.90;;;;;;4892307;29;20104;-68
2022/05/23 13:22:41;;;;;;;0.10;0.10;;;24.70;99.90;;;;;;4892851;29;20139;-67
2022/05/23 13:25:07;;;;;;;0.20;0.20;;;24.90;99.90;;;;;;4892421;29;20135;-68
2022/05/23 13:27:44;;;;;;;0.10;0.03;;;25.10;99.90;;;;;;4892087;29;20099;-68
2022/05/23 13:30:25;;;;;;;0.52;0.52;;;25.20;99.90;;;;;;4883153;29;20591;-68
2022/05/23 13:33:14;;;;;;;0.13;0.10;;;25.20;99.90;;;;;;4859439;29;20068;-68
2022/05/23 13:35:41;;;;;;;0.20;0.20;;;25.10;99.90;;;;;;4891968;29;20048;-68
2022/05/23 13:38:20;;;;;;;0.00;0.00;;;25.10;99.90;;;;;;4890569;29;20397;-68
2022/05/23 13:40:52;;;;;;;0.10;0.10;;;25.20;99.90;;;;;;4891277;29;20959;-69
2022/05/23 13:43:31;;;;;;;0.00;0.00;;;25.10;99.90;;;;;;4883146;29;20052;-69
2022/05/23 13:46:13;;;;;;;0.45;0.20;;;25.00;99.90;;;;;;4892099;29;20404;-68
2022/05/23 13:48:41;;;;;;;0.00;0.00;;;25.10;99.90;;;;;;4891741;29;20103;-68
2022/05/23 13:51:38;;;;;;;0.00;0.00;;;24.80;99.90;;;;;;4892003;29;20048;-68
2022/05/23 13:54:12;;;;;;;0.00;0.00;;;24.80;99.90;;;;;;4890090;29;20148;-71
2022/05/23 13:56:43;;;;;;;0.10;0.10;;;24.80;99.90;;;;;;4891797;29;20044;-71
2022/05/23 13:59:20;;;;;;;0.00;0.00;;;24.50;99.90;;;;;;4892565;29;20124;-71
2022/05/23 14:01:55;;;;;;;0.00;0.00;;;24.40;99.90;;;;;;4876326;29;20476;-70
2022/05/23 14:04:26;;;;;;;0.00;0.00;;;24.50;99.90;;;;;;4874762;29;20052;-70
2022/05/23 14:06:58;;;;;;;0.00;0.00;;;24.40;99.90;;;;;;4874718;29;20060;-70
2022/05/23 14:09:25;;;;;;;0.03;0.03;;;24.30;99.90;;;;;;4890519;29;20058;-70
2022/05/23 14:11:56;;;;;;;0.15;0.15;;;24.20;99.90;;;;;;4871036;29;20841;-67
2022/05/23 14:14:28;;;;;;;0.00;0.00;;;24.20;99.90;;;;;;4889592;29;20043;-67